| time (UTC) | temp F | wind direction | speed knots | gust knots | rain 1hr in | rain 24hr in | rain mn in | humidity % | barometer mb |
| 20260905172855 | 89 | 295 | 1.7 | 2.6 | 0.00 | 0.00 | 0.00 | 60 | 1010.7 |
| 20260905172353 | 89 | 216 | 2.6 | 2.6 | 0.00 | 0.00 | 0.00 | 59 | 1010.8 |
| 20260905171849 | 89 | 221 | 1.7 | 1.7 | 0.00 | 0.00 | 0.00 | 58 | 1010.9 |
| 20260905171346 | 89 | 231 | 2.6 | 2.6 | 0.00 | 0.00 | 0.00 | 58 | 1011.0 |
| 20260905170842 | 89 | 236 | 0.9 | 1.7 | 0.00 | 0.00 | 0.00 | 61 | 1011.0 |
| 20260905170338 | 89 | 172 | 4.3 | 6.1 | 0.00 | 0.00 | 0.00 | 58 | 1011.1 |
| 20260905165837 | 88 | 6 | 0.9 | 1.7 | 0.00 | 0.00 | 0.00 | 61 | 1010.9 |
| 20260905165332 | 87 | 261 | 0.9 | 1.7 | 0.00 | 0.00 | 0.00 | 60 | 1011.0 |
| 20260905164832 | 88 | 173 | 5.2 | 6.1 | 0.00 | 0.00 | 0.00 | 59 | 1011.4 |
| 20260905164327 | 87 | 213 | 3.5 | 3.5 | 0.00 | 0.00 | 0.00 | 61 | 1011.4 |
| 20260905163823 | 87 | 194 | 3.5 | 5.2 | 0.00 | 0.00 | 0.00 | 60 | 1011.3 |
| 20260905163319 | 86 | 133 | 3.5 | 6.1 | 0.00 | 0.00 | 0.00 | 61 | 1011.3 |
| 20260905162815 | 86 | 234 | 4.3 | 5.2 | 0.00 | 0.00 | 0.00 | 62 | 1011.4 |
| 20260905162314 | 86 | 242 | 3.5 | 5.2 | 0.00 | 0.00 | 0.00 | 61 | 1011.3 |
| 20260905161809 | 85 | 238 | 3.5 | 5.2 | 0.00 | 0.00 | 0.00 | 61 | 1011.4 |
| 20260905161308 | 85 | 196 | 3.5 | 3.5 | 0.00 | 0.00 | 0.00 | 63 | 1011.3 |
| 20260905160807 | 85 | 217 | 4.3 | 6.1 | 0.00 | 0.00 | 0.00 | 63 | 1011.5 |
| 20260905160301 | 85 | 170 | 3.5 | 3.5 | 0.00 | 0.00 | 0.00 | 63 | 1011.4 |
| 20260905155756 | 85 | 215 | 1.7 | 1.7 | 0.00 | 0.00 | 0.00 | 65 | 1011.5 |
| 20260905155255 | 84 | 256 | 3.5 | 3.5 | 0.00 | 0.00 | 0.00 | 65 | 1011.4 |
| 20260905154754 | 84 | 194 | 2.6 | 3.5 | 0.00 | 0.00 | 0.00 | 65 | 1011.4 |
| 20260905154251 | 84 | 220 | 3.5 | 3.5 | 0.00 | 0.00 | 0.00 | 63 | 1011.3 |
| 20260905153746 | 84 | 201 | 5.2 | 7.0 | 0.00 | 0.00 | 0.00 | 63 | 1011.4 |
| 20260905153242 | 83 | 163 | 3.5 | 5.2 | 0.00 | 0.00 | 0.00 | 63 | 1011.6 |
| 20260905152737 | 83 | 185 | 0.9 | 0.9 | 0.00 | 0.00 | 0.00 | 67 | 1011.7 |
| 20260905152237 | 83 | 193 | 3.5 | 5.2 | 0.00 | 0.00 | 0.00 | 65 | 1011.8 |
| 20260905151736 | 83 | 186 | 2.6 | 2.6 | 0.00 | 0.00 | 0.00 | 65 | 1011.7 |
| 20260905151233 | 83 | 223 | 1.7 | 2.6 | 0.00 | 0.00 | 0.00 | 64 | 1011.7 |
| 20260905150732 | 82 | 189 | 0.9 | 1.7 | 0.00 | 0.00 | 0.00 | 65 | 1011.9 |
| 20260905150231 | 83 | 199 | 3.5 | 5.2 | 0.00 | 0.00 | 0.00 | 64 | 1011.8 |
| 20260905145729 | 82 | 332 | 0.9 | 0.9 | 0.00 | 0.00 | 0.00 | 66 | 1011.7 |
| 20260905145224 | 82 | 245 | 2.6 | 2.6 | 0.00 | 0.00 | 0.00 | 67 | 1011.8 |
| 20260905144723 | 81 | 234 | 1.7 | 1.7 | 0.00 | 0.00 | 0.00 | 68 | 1011.8 |
| 20260905144218 | 80 | 192 | 4.3 | 6.1 | 0.00 | 0.00 | 0.00 | 69 | 1011.8 |
| 20260905143717 | 81 | 225 | 2.6 | 3.5 | 0.00 | 0.00 | 0.00 | 69 | 1011.8 |
| 20260905143217 | 80 | 40 | 0.0 | 0.0 | 0.00 | 0.00 | 0.00 | 71 | 1011.7 |
| 20260905142715 | 79 | 172 | 3.5 | 3.5 | 0.00 | 0.00 | 0.00 | 71 | 1012.0 |
| 20260905142211 | 79 | 236 | 4.3 | 6.1 | 0.00 | 0.00 | 0.00 | 72 | 1012.1 |
| 20260905141706 | 79 | 160 | 3.5 | 5.2 | 0.00 | 0.00 | 0.00 | 71 | 1012.0 |
| 20260905141202 | 79 | 229 | 3.5 | 3.5 | 0.00 | 0.00 | 0.00 | 73 | 1012.0 |
| 20260905140657 | 79 | 35 | 0.0 | 0.0 | 0.00 | 0.00 | 0.00 | 74 | 1012.2 |
| 20260905140157 | 78 | 211 | 1.7 | 2.6 | 0.00 | 0.00 | 0.00 | 73 | 1012.1 |
| 20260905135652 | 78 | 258 | 0.9 | 1.7 | 0.00 | 0.00 | 0.00 | 75 | 1012.0 |
| 20260905135148 | 77 | 231 | 1.7 | 3.5 | 0.00 | 0.00 | 0.00 | 77 | 1012.1 |
| 20260905134647 | 76 | 14 | 0.9 | 0.9 | 0.00 | 0.00 | 0.00 | 78 | 1012.1 |
| 20260905134146 | 75 | 183 | 0.9 | 1.7 | 0.00 | 0.00 | 0.00 | 79 | 1011.9 |
| 20260905133642 | 75 | 321 | 1.7 | 2.6 | 0.00 | 0.00 | 0.00 | 80 | 1011.7 |
| 20260905133142 | 75 | 236 | 0.9 | 1.7 | 0.00 | 0.00 | 0.00 | 81 | 1011.8 |
| 20260905132641 | 74 | 322 | 0.9 | 0.9 | 0.00 | 0.00 | 0.00 | 82 | 1011.9 |
| 20260905132136 | 74 | 313 | 0.9 | 0.9 | 0.00 | 0.00 | 0.00 | 82 | 1011.9 |
| 20260905131631 | 74 | 23 | 0.0 | 0.0 | 0.00 | 0.00 | 0.00 | 83 | 1011.9 |
| 20260905131127 | 74 | 343 | 0.9 | 1.7 | 0.00 | 0.00 | 0.00 | 83 | 1011.9 |
| 20260905130627 | 74 | 245 | 2.6 | 2.6 | 0.00 | 0.00 | 0.00 | 83 | 1012.2 |
| 20260905130126 | 74 | 15 | 0.9 | 0.9 | 0.00 | 0.00 | 0.00 | 83 | 1012.1 |
| 20260905125621 | 74 | 218 | 1.7 | 1.7 | 0.00 | 0.00 | 0.00 | 83 | 1012.3 |
| 20260905125117 | 74 | 76 | 0.9 | 1.7 | 0.00 | 0.00 | 0.00 | 84 | 1012.3 |
| 20260905124613 | 74 | 274 | 0.9 | 1.7 | 0.00 | 0.00 | 0.00 | 85 | 1012.4 |
| 20260905124109 | 73 | 0 | 2.6 | 3.5 | 0.00 | 0.00 | 0.00 | 87 | 1012.2 |
| 20260905123603 | 73 | 333 | 1.7 | 2.6 | 0.00 | 0.00 | 0.00 | 86 | 1012.0 |
| 20260905123101 | 73 | 123 | 5.2 | 7.0 | 0.00 | 0.00 | 0.00 | 84 | 1012.0 |
| 20260905122601 | 74 | 122 | 2.6 | 3.5 | 0.00 | 0.00 | 0.00 | 85 | 1012.1 |
| 20260905122101 | 74 | 342 | 0.9 | 1.7 | 0.00 | 0.00 | 0.00 | 86 | 1012.1 |
| 20260905121555 | 74 | 358 | 2.6 | 2.6 | 0.00 | 0.00 | 0.00 | 87 | 1012.1 |
| 20260905121051 | 75 | 245 | 0.9 | 2.6 | 0.00 | 0.00 | 0.00 | 94 | 1011.9 |
| 20260905120550 | 75 | 65 | 0.0 | 0.9 | 0.00 | 0.00 | 0.00 | 95 | 1011.8 |
| 20260905120045 | 75 | 22 | 0.0 | 0.0 | 0.00 | 0.00 | 0.00 | 95 | 1011.4 |
| 20260905115544 | 75 | 261 | 1.7 | 1.7 | 0.00 | 0.00 | 0.00 | 97 | 1011.4 |
| 20260905115039 | 75 | 59 | 0.9 | 1.7 | 0.00 | 0.00 | 0.00 | 97 | 1011.5 |
| 20260905114538 | 74 | 94 | 3.5 | 7.0 | 0.00 | 0.00 | 0.00 | 97 | 1011.3 |
| 20260905114037 | 74 | 80 | 5.2 | 7.8 | 0.00 | 0.00 | 0.00 | 97 | 1011.5 |
| 20260905113532 | 74 | 39 | 0.0 | 0.0 | 0.00 | 0.00 | 0.00 | 97 | 1010.5 |
| 20260905113028 | 74 | 38 | 0.0 | 0.0 | 0.00 | 0.00 | 0.00 | 97 | 1010.6 |
| 20260905112523 | 74 | 319 | 0.0 | 0.9 | 0.00 | 0.00 | 0.00 | 97 | 1010.8 |
| 20260905112019 | 74 | 316 | 0.9 | 1.7 | 0.00 | 0.00 | 0.00 | 97 | 1010.5 |
| 20260905111519 | 73 | 287 | 0.9 | 0.9 | 0.00 | 0.00 | 0.00 | 97 | 1010.4 |
| 20260905111018 | 73 | 222 | 0.0 | 0.0 | 0.00 | 0.00 | 0.00 | 97 | 1010.3 |
| 20260905110517 | 73 | 222 | 0.0 | 0.0 | 0.00 | 0.00 | 0.00 | 96 | 1010.3 |
| 20260905110013 | 74 | 222 | 0.0 | 0.0 | 0.00 | 0.00 | 0.00 | 96 | 1010.3 |
| 20260905105507 | 74 | 222 | 0.0 | 0.0 | 0.00 | 0.00 | 0.00 | 96 | 1010.2 |
| 20260905105007 | 74 | 222 | 0.0 | 0.0 | 0.00 | 0.00 | 0.00 | 97 | 1010.2 |
| 20260905104503 | 74 | 222 | 0.0 | 0.0 | 0.00 | 0.00 | 0.00 | 96 | 1010.3 |
| 20260905104002 | 74 | 222 | 0.0 | 0.0 | 0.00 | 0.00 | 0.00 | 96 | 1010.1 |
| 20260905103458 | 74 | 222 | 0.0 | 0.0 | 0.00 | 0.00 | 0.00 | 96 | 1010.2 |
| 20260905102954 | 74 | 224 | 0.9 | 0.9 | 0.00 | 0.00 | 0.00 | 96 | 1010.0 |
| 20260905102450 | 74 | 224 | 0.0 | 0.0 | 0.00 | 0.00 | 0.00 | 96 | 1009.9 |
| 20260905101945 | 74 | 224 | 0.0 | 0.9 | 0.00 | 0.00 | 0.00 | 96 | 1010.1 |
| 20260905101444 | 74 | 224 | 0.9 | 0.9 | 0.00 | 0.00 | 0.00 | 97 | 1009.9 |
| 20260905100943 | 74 | 224 | 0.9 | 0.9 | 0.00 | 0.00 | 0.00 | 96 | 1010.3 |
| 20260905100439 | 74 | 224 | 0.9 | 0.9 | 0.00 | 0.00 | 0.00 | 96 | 1010.3 |
| 20260905095938 | 74 | 224 | 0.0 | 0.0 | 0.00 | 0.00 | 0.00 | 97 | 1010.2 |
| 20260905095438 | 74 | 229 | 1.7 | 1.7 | 0.00 | 0.00 | 0.00 | 97 | 1010.2 |
| 20260905094933 | 74 | 232 | 1.7 | 1.7 | 0.00 | 0.00 | 0.00 | 97 | 1010.1 |
| 20260905094429 | 74 | 272 | 0.0 | 0.0 | 0.00 | 0.00 | 0.00 | 97 | 1010.2 |
| 20260905093927 | 74 | 292 | 0.0 | 0.0 | 0.00 | 0.00 | 0.00 | 96 | 1010.3 |
| 20260905093423 | 74 | 292 | 0.0 | 0.0 | 0.00 | 0.00 | 0.00 | 96 | 1010.2 |
| 20260905092918 | 74 | 292 | 0.0 | 0.0 | 0.00 | 0.00 | 0.00 | 96 | 1010.3 |
| 20260905092413 | 74 | 292 | 0.0 | 0.0 | 0.00 | 0.00 | 0.00 | 96 | 1010.2 |
| 20260905091909 | 75 | 292 | 0.0 | 0.0 | 0.00 | 0.00 | 0.00 | 96 | 1010.2 |
| 20260905091409 | 75 | 291 | 0.0 | 0.0 | 0.00 | 0.00 | 0.00 | 96 | 1010.1 |
| 20260905090908 | 75 | 291 | 0.0 | 0.0 | 0.00 | 0.00 | 0.00 | 95 | 1010.2 |
| 20260905090404 | 75 | 291 | 0.0 | 0.0 | 0.00 | 0.00 | 0.00 | 95 | 1010.1 |
| 20260905085903 | 75 | 291 | 0.0 | 0.0 | 0.00 | 0.00 | 0.00 | 95 | 1010.1 |
| 20260905085403 | 75 | 292 | 0.0 | 0.0 | 0.00 | 0.00 | 0.00 | 95 | 1010.0 |
| 20260905084859 | 76 | 292 | 0.0 | 0.0 | 0.00 | 0.00 | 0.00 | 95 | 1010.1 |
| 20260905084357 | 76 | 291 | 0.0 | 0.0 | 0.00 | 0.00 | 0.00 | 95 | 1009.7 |
| 20260905083853 | 76 | 291 | 0.0 | 0.0 | 0.00 | 0.00 | 0.00 | 95 | 1009.8 |
| 20260905083348 | 76 | 291 | 0.0 | 0.0 | 0.00 | 0.00 | 0.00 | 95 | 1009.8 |
| 20260905082844 | 76 | 321 | 0.9 | 0.9 | 0.00 | 0.00 | 0.00 | 95 | 1009.7 |
| 20260905082340 | 76 | 310 | 0.0 | 0.9 | 0.00 | 0.00 | 0.00 | 96 | 1009.8 |
| 20260905081835 | 75 | 296 | 0.9 | 0.9 | 0.00 | 0.00 | 0.00 | 96 | 1009.5 |
| 20260905081330 | 75 | 260 | 1.7 | 1.7 | 0.00 | 0.00 | 0.00 | 96 | 1009.8 |
| 20260905080829 | 75 | 301 | 0.0 | 0.0 | 0.00 | 0.00 | 0.00 | 96 | 1009.7 |
| 20260905080324 | 75 | 300 | 0.0 | 0.0 | 0.00 | 0.00 | 0.00 | 97 | 1009.6 |
| 20260905075822 | 74 | 300 | 0.0 | 0.0 | 0.00 | 0.00 | 0.00 | 97 | 1009.5 |
| 20260905075322 | 74 | 301 | 0.0 | 0.0 | 0.00 | 0.00 | 0.00 | 97 | 1009.6 |
| 20260905074821 | 74 | 301 | 0.0 | 0.0 | 0.00 | 0.00 | 0.00 | 97 | 1009.7 |
| 20260905074317 | 74 | 301 | 0.0 | 0.0 | 0.00 | 0.00 | 0.00 | 97 | 1009.6 |
| 20260905073813 | 74 | 301 | 0.0 | 0.0 | 0.00 | 0.00 | 0.00 | 97 | 1009.5 |
| 20260905073308 | 74 | 301 | 0.0 | 0.0 | 0.00 | 0.00 | 0.00 | 97 | 1009.4 |
| 20260905072808 | 74 | 301 | 0.0 | 0.0 | 0.00 | 0.00 | 0.00 | 97 | 1009.5 |
| 20260905072305 | 74 | 301 | 0.0 | 0.0 | 0.00 | 0.00 | 0.00 | 97 | 1009.6 |
| 20260905071759 | 74 | 301 | 0.0 | 0.0 | 0.00 | 0.00 | 0.00 | 97 | 1009.5 |
| 20260905071255 | 74 | 301 | 0.0 | 0.0 | 0.00 | 0.00 | 0.00 | 97 | 1009.5 |
| 20260905070749 | 74 | 301 | 0.0 | 0.0 | 0.00 | 0.00 | 0.00 | 97 | 1009.7 |
| 20260905070247 | 74 | 301 | 0.0 | 0.0 | 0.00 | 0.00 | 0.00 | 97 | 1009.9 |
| 20260905065745 | 75 | 301 | 0.0 | 0.0 | 0.00 | 0.00 | 0.00 | 97 | 1009.6 |
| 20260905065244 | 74 | 301 | 0.0 | 0.0 | 0.00 | 0.00 | 0.00 | 97 | 1010.0 |
| 20260905064740 | 74 | 301 | 0.0 | 0.0 | 0.00 | 0.00 | 0.00 | 97 | 1010.0 |
| 20260905064235 | 74 | 301 | 0.0 | 0.0 | 0.00 | 0.00 | 0.00 | 97 | 1010.0 |
| 20260905063733 | 74 | 301 | 0.0 | 0.0 | 0.00 | 0.00 | 0.00 | 97 | 1010.1 |
| 20260905063230 | 75 | 301 | 0.0 | 0.0 | 0.00 | 0.00 | 0.00 | 97 | 1010.2 |
| 20260905062726 | 75 | 301 | 0.0 | 0.0 | 0.00 | 0.00 | 0.00 | 97 | 1010.3 |
| 20260905062225 | 75 | 301 | 0.0 | 0.0 | 0.00 | 0.00 | 0.00 | 97 | 1010.3 |
| 20260905061720 | 75 | 301 | 0.0 | 0.0 | 0.00 | 0.00 | 0.00 | 97 | 1010.5 |
| 20260905061214 | 75 | 301 | 0.0 | 0.0 | 0.00 | 0.00 | 0.00 | 97 | 1010.5 |
| 20260905060709 | 75 | 301 | 0.0 | 0.0 | 0.00 | 0.00 | 0.00 | 96 | 1010.5 |
| 20260905060206 | 75 | 301 | 0.0 | 0.0 | 0.00 | 0.00 | 0.00 | 97 | 1010.5 |
| 20260905055704 | 75 | 301 | 0.0 | 0.0 | 0.00 | 0.00 | 0.00 | 96 | 1010.5 |
| 20260905055159 | 75 | 301 | 0.0 | 0.0 | 0.00 | 0.00 | 0.00 | 96 | 1010.5 |
| 20260905054655 | 75 | 301 | 0.0 | 0.0 | 0.00 | 0.00 | 0.00 | 96 | 1010.6 |
| 20260905054151 | 75 | 301 | 0.0 | 0.0 | 0.00 | 0.00 | 0.00 | 96 | 1010.7 |
| 20260905053650 | 75 | 301 | 0.0 | 0.0 | 0.00 | 0.00 | 0.00 | 96 | 1010.6 |
| 20260905053145 | 75 | 301 | 0.0 | 0.0 | 0.00 | 0.00 | 0.00 | 96 | 1010.7 |
| 20260905052645 | 75 | 301 | 0.0 | 0.0 | 0.00 | 0.00 | 0.00 | 96 | 1010.8 |
| 20260905052140 | 75 | 301 | 0.0 | 0.0 | 0.00 | 0.00 | 0.00 | 96 | 1010.5 |
| 20260905051635 | 75 | 301 | 0.0 | 0.0 | 0.00 | 0.00 | 0.00 | 96 | 1010.6 |
| 20260905051132 | 75 | 301 | 0.0 | 0.0 | 0.00 | 0.00 | 0.00 | 95 | 1010.7 |
| 20260905050628 | 75 | 301 | 0.0 | 0.0 | 0.00 | 0.00 | 0.00 | 95 | 1010.7 |
| 20260905050125 | 76 | 301 | 0.0 | 0.0 | 0.00 | 0.00 | 0.00 | 96 | 1010.7 |
| 20260905045624 | 76 | 301 | 0.0 | 0.0 | 0.00 | 0.00 | 0.00 | 96 | 1010.7 |
| 20260905045120 | 76 | 301 | 0.0 | 0.0 | 0.00 | 0.00 | 0.00 | 95 | 1010.9 |
| 20260905044620 | 76 | 301 | 0.0 | 0.0 | 0.00 | 0.00 | 0.00 | 95 | 1010.8 |
| 20260905044120 | 76 | 301 | 0.0 | 0.0 | 0.00 | 0.00 | 0.00 | 96 | 1010.7 |
| 20260905043618 | 76 | 301 | 0.0 | 0.0 | 0.00 | 0.00 | 0.00 | 96 | 1010.9 |
| 20260905043114 | 76 | 301 | 0.0 | 0.0 | 0.00 | 0.00 | 0.00 | 96 | 1010.9 |
| 20260905042612 | 76 | 301 | 0.0 | 0.0 | 0.00 | 0.00 | 0.00 | 96 | 1010.9 |
| 20260905042108 | 76 | 301 | 0.0 | 0.0 | 0.00 | 0.00 | 0.00 | 96 | 1010.9 |
| 20260905041603 | 76 | 301 | 0.0 | 0.0 | 0.00 | 0.00 | 0.00 | 95 | 1010.9 |
| 20260905041059 | 76 | 301 | 0.0 | 0.0 | 0.00 | 0.00 | 0.00 | 95 | 1011.0 |
| 20260905040559 | 76 | 301 | 0.0 | 0.0 | 0.00 | 0.00 | 0.00 | 96 | 1011.0 |
| 20260905040057 | 76 | 301 | 0.0 | 0.0 | 0.00 | 0.00 | 0.00 | 95 | 1011.0 |
| 20260905035552 | 76 | 301 | 0.0 | 0.0 | 0.00 | 0.00 | 0.00 | 95 | 1011.0 |
| 20260905035049 | 76 | 301 | 0.0 | 0.0 | 0.00 | 0.00 | 0.00 | 94 | 1010.8 |
| 20260905034545 | 76 | 301 | 0.0 | 0.0 | 0.00 | 0.00 | 0.00 | 94 | 1011.1 |
| 20260905034039 | 76 | 301 | 0.0 | 0.0 | 0.00 | 0.00 | 0.00 | 94 | 1011.1 |
| 20260905033538 | 76 | 301 | 0.0 | 0.0 | 0.00 | 0.00 | 0.00 | 94 | 1011.0 |
| 20260905033035 | 76 | 301 | 0.0 | 0.0 | 0.00 | 0.00 | 0.00 | 94 | 1011.1 |
| 20260905032535 | 76 | 301 | 0.0 | 0.0 | 0.00 | 0.00 | 0.00 | 93 | 1011.2 |
| 20260905032030 | 76 | 301 | 0.0 | 0.0 | 0.00 | 0.00 | 0.00 | 93 | 1011.2 |
| 20260905031526 | 76 | 301 | 0.0 | 0.0 | 0.00 | 0.00 | 0.00 | 93 | 1011.0 |
| 20260905031025 | 77 | 301 | 0.0 | 0.0 | 0.00 | 0.00 | 0.00 | 93 | 1011.2 |
| 20260905030521 | 77 | 301 | 0.0 | 0.0 | 0.00 | 0.00 | 0.00 | 93 | 1010.9 |
| 20260905030021 | 77 | 301 | 0.0 | 0.0 | 0.00 | 0.00 | 0.00 | 93 | 1010.8 |
| 20260905025516 | 77 | 301 | 0.0 | 0.0 | 0.00 | 0.00 | 0.00 | 93 | 1010.8 |
| 20260905025012 | 77 | 301 | 0.0 | 0.0 | 0.00 | 0.00 | 0.00 | 93 | 1010.9 |
| 20260905024507 | 77 | 301 | 0.0 | 0.0 | 0.00 | 0.00 | 0.00 | 92 | 1010.8 |
| 20260905024002 | 77 | 301 | 0.0 | 0.0 | 0.00 | 0.00 | 0.00 | 92 | 1010.7 |
| 20260905023457 | 77 | 301 | 0.0 | 0.0 | 0.00 | 0.00 | 0.00 | 92 | 1011.0 |
| 20260905022956 | 78 | 301 | 0.0 | 0.0 | 0.00 | 0.00 | 0.00 | 91 | 1010.9 |
| 20260905022451 | 78 | 301 | 0.0 | 0.0 | 0.00 | 0.00 | 0.00 | 91 | 1010.8 |
| 20260905021947 | 78 | 301 | 0.0 | 0.0 | 0.00 | 0.00 | 0.00 | 92 | 1010.8 |
| 20260905021446 | 78 | 301 | 0.0 | 0.0 | 0.00 | 0.00 | 0.00 | 91 | 1010.8 |
| 20260905020941 | 78 | 301 | 0.0 | 0.0 | 0.00 | 0.00 | 0.00 | 91 | 1010.7 |
| 20260905020442 | 78 | 301 | 0.0 | 0.0 | 0.00 | 0.00 | 0.00 | 91 | 1010.6 |
| 20260905015941 | 78 | 301 | 0.0 | 0.0 | 0.00 | 0.00 | 0.00 | 90 | 1010.6 |
| 20260905015440 | 78 | 301 | 0.0 | 0.0 | 0.00 | 0.00 | 0.00 | 90 | 1010.7 |
| 20260905014939 | 78 | 301 | 0.0 | 0.0 | 0.00 | 0.00 | 0.00 | 90 | 1010.6 |
| 20260905014435 | 79 | 301 | 0.0 | 0.0 | 0.00 | 0.00 | 0.00 | 90 | 1010.6 |
| 20260905013930 | 79 | 301 | 0.0 | 0.0 | 0.00 | 0.00 | 0.00 | 90 | 1010.6 |
| 20260905013427 | 79 | 301 | 0.0 | 0.0 | 0.00 | 0.00 | 0.00 | 90 | 1010.7 |
| 20260905012927 | 79 | 301 | 0.0 | 0.0 | 0.00 | 0.00 | 0.00 | 89 | 1010.7 |
| 20260905012422 | 79 | 301 | 0.0 | 0.0 | 0.00 | 0.00 | 0.00 | 89 | 1010.7 |
| 20260905011919 | 79 | 301 | 0.0 | 0.9 | 0.00 | 0.00 | 0.00 | 89 | 1010.6 |
| 20260905011414 | 79 | 301 | 0.0 | 0.0 | 0.00 | 0.00 | 0.00 | 89 | 1010.4 |
| 20260905010910 | 80 | 301 | 0.0 | 0.0 | 0.00 | 0.00 | 0.00 | 88 | 1010.5 |
| 20260905010405 | 80 | 301 | 0.0 | 0.0 | 0.00 | 0.00 | 0.00 | 87 | 1010.6 |
| 20260905005901 | 80 | 301 | 0.0 | 0.0 | 0.00 | 0.00 | 0.00 | 86 | 1010.5 |
| 20260905005356 | 81 | 301 | 0.0 | 0.0 | 0.00 | 0.00 | 0.00 | 85 | 1010.6 |
| 20260905004852 | 81 | 301 | 0.0 | 0.9 | 0.00 | 0.00 | 0.00 | 85 | 1010.4 |
| 20260905004352 | 81 | 301 | 0.0 | 0.0 | 0.00 | 0.00 | 0.00 | 84 | 1010.5 |
| 20260905003847 | 82 | 301 | 0.0 | 0.0 | 0.00 | 0.00 | 0.00 | 84 | 1010.2 |
| 20260905003343 | 82 | 301 | 0.0 | 0.0 | 0.00 | 0.00 | 0.00 | 83 | 1010.2 |
| 20260905002838 | 83 | 301 | 0.0 | 0.0 | 0.00 | 0.00 | 0.00 | 83 | 1010.3 |
| 20260905002338 | 84 | 301 | 0.0 | 0.0 | 0.00 | 0.00 | 0.00 | 82 | 1010.2 |
| 20260905001833 | 84 | 301 | 0.0 | 0.0 | 0.00 | 0.00 | 0.00 | 79 | 1010.5 |
| 20260905001332 | 85 | 301 | 0.0 | 0.0 | 0.00 | 0.00 | 0.00 | 78 | 1010.4 |
| 20260905000828 | 86 | 301 | 0.0 | 0.0 | 0.00 | 0.00 | 0.00 | 76 | 1010.5 |
| 20260905000325 | 87 | 301 | 0.0 | 0.0 | 0.00 | 0.00 | 0.00 | 73 | 1010.3 |
| 20260904235818 | 88 | 301 | 0.0 | 0.0 | 0.00 | 0.00 | 0.00 | 72 | 1010.5 |
| 20260904235314 | 89 | 301 | 0.0 | 0.0 | 0.00 | 0.00 | 0.00 | 71 | 1010.4 |
| 20260904234808 | 90 | 301 | 0.9 | 0.9 | 0.00 | 0.00 | 0.00 | 69 | 1010.3 |
| 20260904234303 | 93 | 301 | 0.9 | 0.9 | 0.00 | 0.00 | 0.00 | 65 | 1010.3 |
| 20260904233759 | 94 | 301 | 0.9 | 0.9 | 0.00 | 0.00 | 0.00 | 63 | 1010.2 |
| 20260904233255 | 94 | 300 | 0.0 | 0.0 | 0.00 | 0.00 | 0.00 | 59 | 1010.4 |
| 20260904232752 | 94 | 301 | 0.0 | 0.0 | 0.00 | 0.00 | 0.00 | 59 | 1010.3 |
| 20260904232248 | 94 | 301 | 0.0 | 0.0 | 0.00 | 0.00 | 0.00 | 58 | 1010.2 |
| 20260904231743 | 94 | 303 | 0.0 | 0.9 | 0.00 | 0.00 | 0.00 | 57 | 1010.3 |
| 20260904231238 | 94 | 261 | 1.7 | 1.7 | 0.00 | 0.00 | 0.00 | 57 | 1010.1 |
| 20260904230738 | 94 | 287 | 0.0 | 0.0 | 0.00 | 0.00 | 0.00 | 57 | 1010.2 |
| 20260904230232 | 95 | 274 | 0.9 | 1.7 | 0.00 | 0.00 | 0.00 | 56 | 1010.1 |
| 20260904225732 | 95 | 294 | 0.9 | 1.7 | 0.00 | 0.00 | 0.00 | 57 | 1010.3 |
| 20260904225226 | 95 | 300 | 0.9 | 0.9 | 0.00 | 0.00 | 0.00 | 59 | 1010.2 |
| 20260904224725 | 95 | 226 | 5.2 | 6.1 | 0.00 | 0.00 | 0.00 | 56 | 1010.2 |
| 20260904224220 | 95 | 273 | 1.7 | 2.6 | 0.00 | 0.00 | 0.00 | 56 | 1010.1 |
| 20260904223719 | 95 | 205 | 2.6 | 2.6 | 0.00 | 0.00 | 0.00 | 55 | 1010.1 |
| 20260904223215 | 96 | 246 | 0.9 | 0.9 | 0.00 | 0.00 | 0.00 | 55 | 1010.1 |
| 20260904222711 | 96 | 277 | 0.9 | 1.7 | 0.00 | 0.00 | 0.00 | 54 | 1010.1 |
| 20260904222206 | 96 | 286 | 1.7 | 1.7 | 0.00 | 0.00 | 0.00 | 54 | 1009.9 |
| 20260904221705 | 96 | 211 | 2.6 | 2.6 | 0.00 | 0.00 | 0.00 | 53 | 1010.0 |
| 20260904221201 | 96 | 287 | 0.9 | 0.9 | 0.00 | 0.00 | 0.00 | 53 | 1009.9 |
| 20260904220655 | 97 | 272 | 2.6 | 2.6 | 0.00 | 0.00 | 0.00 | 53 | 1010.1 |
| 20260904220150 | 97 | 210 | 1.7 | 2.6 | 0.00 | 0.00 | 0.00 | 54 | 1010.1 |
| 20260904215650 | 97 | 254 | 1.7 | 2.6 | 0.00 | 0.00 | 0.00 | 53 | 1010.1 |
| 20260904215147 | 97 | 213 | 2.6 | 3.5 | 0.00 | 0.00 | 0.00 | 54 | 1009.9 |
| 20260904214647 | 97 | 350 | 3.5 | 3.5 | 0.00 | 0.00 | 0.00 | 52 | 1010.1 |
| 20260904214143 | 96 | 311 | 2.6 | 2.6 | 0.00 | 0.00 | 0.00 | 52 | 1010.2 |
| 20260904213640 | 97 | 246 | 3.5 | 3.5 | 0.00 | 0.00 | 0.00 | 51 | 1010.1 |
| 20260904213138 | 98 | 288 | 2.6 | 2.6 | 0.00 | 0.00 | 0.00 | 51 | 1010.1 |
| 20260904212637 | 98 | 181 | 2.6 | 2.6 | 0.00 | 0.00 | 0.00 | 51 | 1010.3 |
| 20260904212132 | 98 | 272 | 1.7 | 1.7 | 0.00 | 0.00 | 0.00 | 51 | 1010.3 |
| 20260904211632 | 98 | 215 | 1.7 | 3.5 | 0.00 | 0.00 | 0.00 | 51 | 1010.2 |
| 20260904211128 | 98 | 333 | 0.9 | 0.9 | 0.00 | 0.00 | 0.00 | 51 | 1010.3 |
| 20260904210627 | 98 | 324 | 1.7 | 1.7 | 0.00 | 0.00 | 0.00 | 50 | 1010.3 |
| 20260904210123 | 98 | 325 | 3.5 | 5.2 | 0.00 | 0.00 | 0.00 | 51 | 1010.5 |
| 20260904205619 | 98 | 283 | 1.7 | 1.7 | 0.00 | 0.00 | 0.00 | 53 | 1010.7 |
| 20260904205115 | 97 | 252 | 1.7 | 1.7 | 0.00 | 0.00 | 0.00 | 50 | 1010.6 |
| 20260904204610 | 97 | 278 | 2.6 | 2.6 | 0.00 | 0.00 | 0.00 | 51 | 1010.7 |
| 20260904204106 | 98 | 278 | 4.3 | 5.2 | 0.00 | 0.00 | 0.00 | 51 | 1010.6 |
| 20260904203602 | 98 | 298 | 0.9 | 1.7 | 0.00 | 0.00 | 0.00 | 52 | 1010.7 |
| 20260904203058 | 98 | 242 | 2.6 | 2.6 | 0.00 | 0.00 | 0.00 | 52 | 1010.8 |
| 20260904202554 | 98 | 293 | 1.7 | 1.7 | 0.00 | 0.00 | 0.00 | 53 | 1010.9 |
| 20260904202051 | 98 | 254 | 4.3 | 5.2 | 0.00 | 0.00 | 0.00 | 51 | 1011.0 |
| 20260904201550 | 97 | 301 | 1.7 | 2.6 | 0.00 | 0.00 | 0.00 | 52 | 1011.1 |
| 20260904201046 | 97 | 348 | 2.6 | 3.5 | 0.00 | 0.00 | 0.00 | 53 | 1010.9 |
| 20260904200544 | 97 | 328 | 3.5 | 3.5 | 0.00 | 0.00 | 0.00 | 52 | 1011.3 |
| 20260904200040 | 97 | 338 | 1.7 | 1.7 | 0.00 | 0.00 | 0.00 | 52 | 1011.2 |
| 20260904195538 | 98 | 315 | 3.5 | 3.5 | 0.00 | 0.00 | 0.00 | 50 | 1011.3 |
| 20260904195038 | 98 | 276 | 1.7 | 2.6 | 0.00 | 0.00 | 0.00 | 51 | 1011.4 |
| 20260904194533 | 98 | 293 | 0.9 | 1.7 | 0.00 | 0.00 | 0.00 | 51 | 1011.1 |
| 20260904194028 | 98 | 335 | 1.7 | 1.7 | 0.00 | 0.00 | 0.00 | 54 | 1011.7 |
| 20260904193528 | 98 | 64 | 1.7 | 2.6 | 0.00 | 0.00 | 0.00 | 51 | 1011.5 |
| 20260904193025 | 97 | 331 | 4.3 | 5.2 | 0.00 | 0.00 | 0.00 | 51 | 1011.6 |
| 20260904192523 | 97 | 309 | 4.3 | 6.1 | 0.00 | 0.00 | 0.00 | 51 | 1011.7 |
| 20260904192020 | 97 | 325 | 3.5 | 3.5 | 0.00 | 0.00 | 0.00 | 51 | 1011.8 |
| 20260904191516 | 97 | 325 | 5.2 | 6.1 | 0.00 | 0.00 | 0.00 | 51 | 1011.7 |
| 20260904191013 | 97 | 259 | 3.5 | 5.2 | 0.00 | 0.00 | 0.00 | 50 | 1011.9 |
| 20260904190508 | 97 | 351 | 3.5 | 3.5 | 0.00 | 0.00 | 0.00 | 52 | 1011.9 |
| 20260904190004 | 97 | 311 | 2.6 | 2.6 | 0.00 | 0.00 | 0.00 | 54 | 1012.0 |
| 20260904185500 | 97 | 326 | 3.5 | 3.5 | 0.00 | 0.00 | 0.00 | 52 | 1012.0 |
| 20260904184955 | 97 | 331 | 2.6 | 2.6 | 0.00 | 0.00 | 0.00 | 52 | 1012.1 |
| 20260904184454 | 96 | 291 | 3.5 | 5.2 | 0.00 | 0.00 | 0.00 | 52 | 1012.3 |
| 20260904183950 | 97 | 293 | 2.6 | 3.5 | 0.00 | 0.00 | 0.00 | 52 | 1012.4 |
| 20260904183445 | 97 | 351 | 2.6 | 3.5 | 0.00 | 0.00 | 0.00 | 53 | 1012.4 |
| 20260904182940 | 97 | 283 | 3.5 | 3.5 | 0.00 | 0.00 | 0.00 | 52 | 1012.4 |
| 20260904182436 | 96 | 305 | 4.3 | 5.2 | 0.00 | 0.00 | 0.00 | 50 | 1012.4 |
| 20260904181936 | 96 | 245 | 3.5 | 5.2 | 0.00 | 0.00 | 0.00 | 51 | 1012.4 |
| 20260904181431 | 96 | 354 | 2.6 | 5.2 | 0.00 | 0.00 | 0.00 | 51 | 1012.5 |
| 20260904180926 | 96 | 312 | 1.7 | 1.7 | 0.00 | 0.00 | 0.00 | 53 | 1012.6 |
| 20260904180421 | 96 | 218 | 3.5 | 3.5 | 0.00 | 0.00 | 0.00 | 54 | 1012.5 |
| 20260904175920 | 96 | 295 | 3.5 | 5.2 | 0.00 | 0.00 | 0.00 | 53 | 1012.6 |
| 20260904175420 | 96 | 299 | 1.7 | 2.6 | 0.00 | 0.00 | 0.00 | 54 | 1012.4 |
| 20260904174920 | 95 | 255 | 5.2 | 7.8 | 0.00 | 0.00 | 0.00 | 54 | 1012.7 |
| 20260904174415 | 95 | 332 | 3.5 | 5.2 | 0.00 | 0.00 | 0.00 | 55 | 1012.5 |
| 20260904173911 | 96 | 348 | 5.2 | 7.8 | 0.00 | 0.00 | 0.00 | 54 | 1012.7 |
| 20260904173407 | 96 | 299 | 5.2 | 6.1 | 0.00 | 0.00 | 0.00 | 57 | 1012.9 |